Terminal Aerodrome Forecast
Issued by NWS

Home | Current Version | Previous Version | Text Only | Print | Product List | Glossary On
Versions: 1 2 3 4 5 6 7 8 9 10 11 12 13 14 15 16 17
654
FTUS43 KDTX 191120
TAFMBS
TAF
KMBS 191120Z 1912/2012 25005KT P6SM BKN200
     FM191400 30007KT P6SM SCT250
     FM200100 VRB03KT P6SM BKN200=

USA.gov is the U.S. government's official web portal to all federal, state and local government web resources and services.